Time;durP1;ratioP1;P1;durP2;ratioP2;P2;SDS_P1;SDS_P2;PMS_P1;PMS_P2;Temp;Humidity;BMP_temperature;BMP_pressure;BME280_temperature;BME280_humidity;BME280_pressure;Samples;Min_cycle;Max_cycle;Signal;HPM_P1;HPM_P2
2021/04/28 00:00:24;;;;;;;1.37;1.20;;;;;;;6.38;44.52;100332.81;4975445;28;20185;-74
2021/04/28 00:02:50;;;;;;;4.40;1.17;;;;;;;6.36;44.25;100332.25;4974221;28;20668;-74
2021/04/28 00:05:15;;;;;;;2.50;1.30;;;;;;;6.43;44.29;100331.00;4974643;28;20212;-73
2021/04/28 00:07:41;;;;;;;1.93;1.50;;;;;;;6.39;44.75;100337.13;4975594;28;20181;-73
2021/04/28 00:10:08;;;;;;;1.20;1.10;;;;;;;6.26;44.95;100330.28;4990860;28;20186;-75
2021/04/28 00:12:36;;;;;;;4.40;1.00;;;;;;;6.31;44.80;100327.63;4974604;28;20564;-73
2021/04/28 00:15:09;;;;;;;1.70;1.20;;;;;;;6.31;44.90;100329.50;4991460;28;20213;-73
2021/04/28 00:17:37;;;;;;;3.03;1.40;;;;;;;6.38;44.74;100322.03;4980455;28;20304;-74
2021/04/28 00:20:10;;;;;;;1.30;1.10;;;;;;;6.33;44.82;100330.88;4993204;28;20662;-74
2021/04/28 00:22:39;;;;;;;1.87;1.40;;;;;;;6.38;44.83;100324.72;4958295;28;20592;-74
2021/04/28 00:25:09;;;;;;;1.67;1.40;;;;;;;6.40;44.85;100326.09;4959258;28;20206;-74
2021/04/28 00:27:35;;;;;;;2.10;1.40;;;;;;;6.32;45.05;100315.78;4994675;28;20182;-74
2021/04/28 00:30:03;;;;;;;3.30;1.30;;;;;;;6.33;45.12;100319.28;4994274;28;20635;-75
2021/04/28 00:32:31;;;;;;;2.77;1.30;;;;;;;6.29;45.25;100318.16;4976430;28;20225;-74
2021/04/28 00:34:59;;;;;;;1.50;1.40;;;;;;;6.29;45.01;100310.88;5010926;28;20246;-74
2021/04/28 00:37:24;;;;;;;1.57;1.40;;;;;;;6.27;45.26;100309.50;5009896;28;20256;-74
2021/04/28 00:39:50;;;;;;;1.47;1.37;;;;;;;6.13;45.68;100309.09;4994103;28;20749;-74
2021/04/28 00:42:16;;;;;;;1.70;1.30;;;;;;;6.06;46.42;100306.81;4992141;28;20228;-74
2021/04/28 00:44:46;;;;;;;1.70;1.20;;;;;;;6.05;46.16;100306.00;4994068;28;20685;-73
2021/04/28 00:47:14;;;;;;;1.83;1.30;;;;;;;6.04;46.30;100306.25;5009801;28;20316;-74
2021/04/28 00:49:40;;;;;;;1.90;1.30;;;;;;;5.97;46.71;100298.38;5010007;28;20260;-74
2021/04/28 00:52:06;;;;;;;2.47;1.30;;;;;;;5.99;46.55;100301.63;4992066;28;20287;-74
2021/04/28 00:54:32;;;;;;;3.10;1.53;;;;;;;5.90;47.15;100297.75;4990178;28;20293;-74
2021/04/28 00:56:58;;;;;;;3.10;1.53;;;;;;;5.89;47.20;100295.28;4990041;28;20232;-74
2021/04/28 00:59:27;;;;;;;2.87;1.30;;;;;;;5.86;47.39;100285.84;4990389;28;20276;-74
2021/04/28 01:01:53;;;;;;;1.80;1.60;;;;;;;5.99;47.13;100285.47;4972458;28;20244;-75
2021/04/28 01:04:21;;;;;;;2.40;1.37;;;;;;;6.08;46.97;100294.75;4990499;28;20213;-75
2021/04/28 01:06:48;;;;;;;3.50;1.50;;;;;;;5.92;47.31;100284.84;4956992;28;20225;-75
2021/04/28 01:09:14;;;;;;;1.63;1.50;;;;;;;5.92;47.34;100286.72;4958197;28;20656;-74
2021/04/28 01:11:44;;;;;;;1.40;1.30;;;;;;;5.92;47.42;100282.13;4973597;28;20233;-75
2021/04/28 01:14:12;;;;;;;2.20;1.53;;;;;;;5.89;47.72;100284.50;4990386;28;20212;-75
2021/04/28 01:16:38;;;;;;;1.67;1.50;;;;;;;5.90;47.59;100278.88;4957506;28;20225;-74
2021/04/28 01:19:10;;;;;;;2.57;1.43;;;;;;;5.90;47.65;100273.50;4974415;28;20761;-74
2021/04/28 01:21:44;;;;;;;2.13;1.50;;;;;;;5.90;47.73;100270.81;4959330;28;20950;-74
2021/04/28 01:24:10;;;;;;;1.97;1.60;;;;;;;5.86;47.90;100274.22;4959002;28;20210;-74
2021/04/28 01:26:35;;;;;;;1.93;1.63;;;;;;;5.88;47.96;100272.94;4990123;28;20229;-74
2021/04/28 01:29:01;;;;;;;2.57;1.47;;;;;;;5.83;47.91;100274.75;4974104;28;20359;-74
2021/04/28 01:31:32;;;;;;;3.37;1.60;;;;;;;5.77;48.57;100271.19;4958318;28;20374;-74
2021/04/28 01:33:58;;;;;;;1.83;1.53;;;;;;;5.79;48.55;100269.03;4975353;28;20201;-74
2021/04/28 01:36:27;;;;;;;2.47;1.80;;;;;;;5.82;48.54;100267.72;4973275;28;20232;-75
2021/04/28 01:38:57;;;;;;;2.30;1.50;;;;;;;5.74;48.46;100253.91;4974114;28;20181;-74
2021/04/28 01:41:25;;;;;;;1.53;1.40;;;;;;;5.69;49.23;100262.69;4977888;28;20237;-74
2021/04/28 01:43:54;;;;;;;2.23;1.57;;;;;;;5.71;48.85;100259.72;4977252;28;20201;-75
2021/04/28 01:46:26;;;;;;;1.80;1.67;;;;;;;5.66;49.08;100265.06;4979838;28;20232;-75
2021/04/28 01:48:52;;;;;;;1.70;1.50;;;;;;;5.67;49.24;100259.41;4980515;28;20335;-75
2021/04/28 01:51:18;;;;;;;2.70;1.60;;;;;;;5.60;49.42;100252.59;4976874;28;20703;-75
2021/04/28 01:53:46;;;;;;;2.40;1.57;;;;;;;5.64;49.57;100253.72;4974129;28;20256;-74
2021/04/28 01:56:12;;;;;;;3.57;1.67;;;;;;;5.71;49.08;100251.66;4973825;28;20221;-74
2021/04/28 01:58:45;;;;;;;1.60;1.47;;;;;;;5.61;49.37;100254.22;4990352;28;20197;-75
2021/04/28 02:01:21;;;;;;;2.90;1.60;;;;;;;5.63;49.55;100246.72;4975071;28;20233;-74
2021/04/28 02:03:48;;;;;;;2.03;1.70;;;;;;;5.65;49.63;100241.88;4972855;28;20209;-74
2021/04/28 02:06:19;;;;;;;2.17;1.80;;;;;;;5.62;49.89;100242.38;4989203;28;20603;-74
2021/04/28 02:08:45;;;;;;;3.07;1.93;;;;;;;5.58;50.07;100243.94;4978241;28;20189;-74
2021/04/28 02:11:11;;;;;;;3.33;1.80;;;;;;;5.53;50.06;100252.78;4976855;28;20206;-74
2021/04/28 02:13:43;;;;;;;2.13;1.57;;;;;;;5.52;50.18;100242.25;4995538;28;20291;-74
2021/04/28 02:16:43;;;;;;;3.63;1.70;;;;;;;5.54;50.24;100232.06;4972283;28;20637;-74
2021/04/28 02:19:11;;;;;;;2.73;1.70;;;;;;;5.55;50.35;100233.66;5012042;28;20189;-74
2021/04/28 02:21:44;;;;;;;2.37;1.77;;;;;;;5.38;50.83;100232.91;4995847;28;20870;-75
2021/04/28 02:24:41;;;;;;;2.00;1.67;;;;;;;5.43;50.78;100233.78;4981503;28;20725;-74
2021/04/28 02:27:10;;;;;;;2.23;1.80;;;;;;;5.52;50.43;100223.41;4995907;28;20791;-74
2021/04/28 02:29:39;;;;;;;5.37;1.97;;;;;;;5.53;50.39;100225.03;4980522;28;20185;-74
2021/04/28 02:32:05;;;;;;;2.13;1.73;;;;;;;5.51;50.63;100221.78;4978702;28;20222;-74
2021/04/28 02:34:48;;;;;;;4.20;2.23;;;;;;;5.50;50.64;100220.16;4997832;28;20203;-74
2021/04/28 02:37:33;;;;;;;2.33;1.70;;;;;;;5.52;50.86;100212.63;4984189;28;20228;-75
2021/04/28 02:40:37;;;;;;;2.73;1.80;;;;;;;5.51;50.75;100211.00;4918428;29;20246;-75
2021/04/28 02:43:06;;;;;;;3.47;1.93;;;;;;;5.49;50.97;100207.75;4913499;29;20367;-74
2021/04/28 02:45:37;;;;;;;2.80;2.00;;;;;;;5.35;51.63;100199.22;4957510;28;20220;-73
2021/04/28 02:48:03;;;;;;;3.17;1.80;;;;;;;5.40;51.23;100203.84;4996422;28;20192;-74
2021/04/28 02:50:34;;;;;;;3.17;2.00;;;;;;;5.41;51.26;100202.81;4992420;28;20227;-74
2021/04/28 02:53:00;;;;;;;2.70;1.90;;;;;;;5.39;51.26;100196.84;5007632;28;20205;-74
2021/04/28 02:55:28;;;;;;;2.43;1.97;;;;;;;5.38;51.46;100200.59;5008178;28;20228;-74
2021/04/28 02:57:58;;;;;;;2.50;1.80;;;;;;;5.41;51.60;100202.81;5008666;28;20204;-75
2021/04/28 03:00:25;;;;;;;2.67;2.00;;;;;;;5.29;52.07;100194.00;4977636;28;20213;-74
2021/04/28 03:02:51;;;;;;;5.93;2.20;;;;;;;5.37;51.63;100196.28;5027840;28;20212;-74
2021/04/28 03:05:20;;;;;;;3.00;2.00;;;;;;;5.30;52.01;100192.97;4995360;28;20666;-74
2021/04/28 03:08:07;;;;;;;3.07;2.10;;;;;;;5.34;51.69;100199.47;5026892;28;20200;-73
2021/04/28 03:10:33;;;;;;;3.23;2.10;;;;;;;5.34;51.86;100195.97;4995565;28;20231;-74
2021/04/28 03:12:59;;;;;;;4.07;1.90;;;;;;;5.30;51.98;100198.34;5027677;28;20211;-74
2021/04/28 03:15:25;;;;;;;2.33;2.00;;;;;;;5.34;51.98;100194.91;4982169;28;20239;-75
2021/04/28 03:17:55;;;;;;;3.20;2.10;;;;;;;5.27;52.47;100198.84;4991947;28;20181;-75
2021/04/28 03:20:26;;;;;;;3.30;2.20;;;;;;;5.31;52.16;100194.59;4991177;28;20181;-75
2021/04/28 03:22:52;;;;;;;2.10;1.90;;;;;;;5.16;52.64;100186.31;4991570;28;20315;-74
2021/04/28 03:25:18;;;;;;;4.83;2.30;;;;;;;5.12;52.72;100184.38;4975486;28;20655;-75
2021/04/28 03:27:49;;;;;;;3.60;2.40;;;;;;;5.12;53.00;100190.56;4961346;28;20181;-74
2021/04/28 03:30:20;;;;;;;2.70;2.03;;;;;;;4.98;53.34;100178.53;4991663;28;20190;-75
2021/04/28 03:32:49;;;;;;;3.40;2.20;;;;;;;5.00;53.32;100179.09;4990501;28;20225;-75
2021/04/28 03:35:29;;;;;;;3.13;2.40;;;;;;;4.86;53.97;100173.50;4993296;28;20224;-75
2021/04/28 03:38:33;;;;;;;3.87;2.00;;;;;;;4.93;53.84;100172.28;4991759;28;20280;-74
2021/04/28 03:41:05;;;;;;;4.40;2.50;;;;;;;5.00;53.79;100176.41;4971169;28;20232;-75
2021/04/28 03:43:34;;;;;;;3.27;2.50;;;;;;;5.01;53.70;100169.16;4941765;28;20249;-75
2021/04/28 03:46:05;;;;;;;2.27;1.93;;;;;;;4.91;54.30;100173.56;4943910;28;20251;-75
2021/04/28 03:48:39;;;;;;;3.47;2.50;;;;;;;4.90;54.50;100182.72;4976360;28;20559;-75
2021/04/28 03:51:04;;;;;;;3.17;2.30;;;;;;;4.91;54.39;100182.47;4977969;28;20220;-76
2021/04/28 03:53:36;;;;;;;2.60;1.97;;;;;;;4.89;54.48;100178.38;4984526;28;20225;-74
2021/04/28 03:56:04;;;;;;;3.70;2.50;;;;;;;4.86;54.60;100178.91;4994245;28;20217;-74
2021/04/28 03:58:31;;;;;;;2.90;2.40;;;;;;;4.86;54.62;100173.50;4994770;28;20638;-74
2021/04/28 04:01:03;;;;;;;4.27;2.30;;;;;;;4.87;54.73;100181.34;4994246;28;20228;-75
2021/04/28 04:03:36;;;;;;;3.30;2.20;;;;;;;4.87;54.85;100175.13;4977757;28;20200;-75
2021/04/28 04:06:28;;;;;;;4.23;2.30;;;;;;;4.64;55.82;100180.72;4967843;28;20703;-74
2021/04/28 04:09:14;;;;;;;3.40;2.50;;;;;;;4.68;55.69;100184.53;4957887;28;20232;-76
2021/04/28 04:11:45;;;;;;;3.07;2.23;;;;;;;4.67;56.02;100177.50;4961787;28;20387;-75
2021/04/28 04:14:16;;;;;;;4.57;2.47;;;;;;;4.74;55.92;100180.84;4996980;28;20216;-75
2021/04/28 04:16:46;;;;;;;6.03;2.47;;;;;;;4.78;55.78;100181.97;4978085;28;20344;-75
2021/04/28 04:19:15;;;;;;;3.43;2.40;;;;;;;4.77;55.89;100177.69;4978942;28;20668;-75
2021/04/28 04:21:52;;;;;;;4.63;2.57;;;;;;;4.83;55.52;100168.63;4993136;28;20233;-76
2021/04/28 04:24:36;;;;;;;5.13;2.53;;;;;;;4.70;56.18;100179.72;4997274;28;20270;-75
2021/04/28 04:27:08;;;;;;;7.60;2.83;;;;;;;4.76;56.02;100178.72;4978122;28;20702;-73
2021/04/28 04:29:43;;;;;;;4.60;2.40;;;;;;;4.84;55.91;100176.44;5011994;28;20569;-75
2021/04/28 04:32:35;;;;;;;3.57;2.47;;;;;;;4.94;55.57;100170.38;4996873;28;20300;-74
2021/04/28 04:35:30;;;;;;;7.43;2.87;;;;;;;4.97;55.28;100176.91;4997710;28;20229;-75
2021/04/28 04:38:16;;;;;;;3.93;2.80;;;;;;;5.03;55.54;100175.09;5012407;28;20725;-75
2021/04/28 04:41:14;;;;;;;4.00;2.40;;;;;;;5.19;55.14;100175.06;5011285;28;20244;-75
2021/04/28 04:44:06;;;;;;;3.43;2.80;;;;;;;5.20;54.97;100176.69;4971696;28;20225;-73
2021/04/28 04:46:55;;;;;;;3.27;2.50;;;;;;;5.31;54.57;100178.47;4993664;28;20781;-74
2021/04/28 04:49:21;;;;;;;4.73;2.40;;;;;;;5.48;53.91;100173.81;5011870;28;20173;-74
2021/04/28 04:51:47;;;;;;;4.43;2.60;;;;;;;5.50;53.76;100177.06;5010183;28;20244;-74
2021/04/28 04:54:15;;;;;;;3.40;2.73;;;;;;;5.64;53.41;100176.44;4994487;28;20196;-75
2021/04/28 04:56:40;;;;;;;3.63;2.53;;;;;;;6.05;52.55;100181.22;5010078;28;20220;-76
2021/04/28 04:59:06;;;;;;;5.53;2.47;;;;;;;6.31;51.37;100173.09;4978038;28;20193;-74
2021/04/28 05:01:35;;;;;;;3.77;3.03;;;;;;;6.47;50.84;100174.88;5001132;28;20220;-75
2021/04/28 05:04:00;;;;;;;10.07;7.30;;;;;;;6.38;51.15;100174.50;5004779;28;20229;-75
2021/04/28 05:06:33;;;;;;;3.90;3.13;;;;;;;6.27;51.40;100161.22;4990499;28;20228;-75
2021/04/28 05:08:58;;;;;;;4.73;2.93;;;;;;;6.35;51.43;100171.50;4989850;28;20185;-75
2021/04/28 05:11:26;;;;;;;5.33;2.60;;;;;;;6.70;50.30;100162.66;5005883;28;20767;-76
2021/04/28 05:13:54;;;;;;;4.07;2.33;;;;;;;6.68;50.37;100167.47;4973341;28;20225;-76
2021/04/28 05:16:20;;;;;;;5.00;2.87;;;;;;;6.69;50.24;100161.00;5008484;28;20229;-75
2021/04/28 05:18:45;;;;;;;3.53;2.60;;;;;;;6.60;50.55;100157.16;5007992;28;20270;-75
2021/04/28 05:21:13;;;;;;;3.70;2.83;;;;;;;6.50;51.07;100158.16;4971529;28;20234;-75
2021/04/28 05:23:43;;;;;;;3.10;2.70;;;;;;;6.52;50.82;100157.66;4986703;28;20225;-74
2021/04/28 05:26:34;;;;;;;3.33;2.67;;;;;;;6.42;51.30;100151.34;4990430;28;20289;-74
2021/04/28 05:29:00;;;;;;;3.63;2.63;;;;;;;6.37;51.22;100142.41;4981240;28;20224;-76
2021/04/28 05:31:26;;;;;;;5.07;3.07;;;;;;;6.45;51.19;100148.16;4979133;28;20213;-74
2021/04/28 05:33:52;;;;;;;4.77;3.00;;;;;;;6.46;51.40;100157.03;4975476;28;20270;-75
2021/04/28 05:36:22;;;;;;;3.67;2.70;;;;;;;6.52;51.37;100144.16;4994436;28;20221;-74
2021/04/28 05:38:47;;;;;;;3.37;2.50;;;;;;;6.60;51.28;100143.66;4979979;28;20290;-73
2021/04/28 05:41:18;;;;;;;6.30;3.60;;;;;;;6.80;50.78;100143.00;4960040;28;20681;-74
2021/04/28 05:43:44;;;;;;;6.63;3.40;;;;;;;6.75;50.89;100141.06;5003373;28;20278;-74
2021/04/28 05:46:10;;;;;;;5.97;3.07;;;;;;;6.78;51.04;100145.16;5006475;28;20222;-76
2021/04/28 05:48:36;;;;;;;5.53;2.87;;;;;;;6.87;50.37;100139.00;4984196;28;20204;-75
2021/04/28 05:51:02;;;;;;;3.90;2.93;;;;;;;6.98;50.68;100146.09;4986542;28;20221;-75
2021/04/28 05:53:31;;;;;;;3.87;2.67;;;;;;;6.95;50.34;100142.00;4937970;28;20711;-74
2021/04/28 05:56:01;;;;;;;3.90;2.87;;;;;;;6.94;50.56;100132.31;4969941;28;20253;-74
2021/04/28 05:58:27;;;;;;;5.63;2.97;;;;;;;7.07;50.19;100137.22;4971142;28;20193;-75
2021/04/28 06:00:55;;;;;;;3.07;2.77;;;;;;;7.26;49.98;100137.59;4970737;28;20674;-74
2021/04/28 06:03:23;;;;;;;3.63;2.93;;;;;;;7.28;49.56;100130.03;4970377;28;20200;-73
2021/04/28 06:05:49;;;;;;;4.47;2.83;;;;;;;7.36;49.50;100133.88;4984708;28;20229;-74
2021/04/28 06:08:19;;;;;;;3.43;2.80;;;;;;;7.64;49.38;100140.69;4990473;28;20287;-74
2021/04/28 06:10:45;;;;;;;3.57;2.80;;;;;;;7.79;49.21;100145.06;4973221;28;20248;-75
2021/04/28 06:13:13;;;;;;;3.53;3.10;;;;;;;7.88;49.11;100134.56;4989506;28;20194;-75
2021/04/28 06:15:46;;;;;;;4.20;2.70;;;;;;;7.95;48.78;100137.78;4991225;28;20240;-74
2021/04/28 06:18:11;;;;;;;4.27;2.97;;;;;;;7.91;48.34;100132.13;4992161;28;20712;-74
2021/04/28 06:20:40;;;;;;;5.67;3.20;;;;;;;7.95;48.09;100126.97;4974254;28;20278;-75
2021/04/28 06:23:05;;;;;;;5.80;3.47;;;;;;;8.09;48.13;100123.47;4992336;28;20190;-75
2021/04/28 06:25:31;;;;;;;5.10;3.30;;;;;;;8.09;47.76;100123.47;4974005;28;20765;-75
2021/04/28 06:27:57;;;;;;;5.80;3.17;;;;;;;8.41;47.75;100111.38;4990423;28;20817;-75
2021/04/28 06:30:25;;;;;;;3.97;3.37;;;;;;;8.60;47.33;100112.44;4989828;28;20221;-74
2021/04/28 06:32:52;;;;;;;6.43;3.17;;;;;;;8.68;46.57;100109.16;4989254;28;20185;-74
2021/04/28 06:35:20;;;;;;;3.70;2.80;;;;;;;8.78;46.66;100109.97;4977194;28;20217;-75
2021/04/28 06:37:46;;;;;;;4.43;3.10;;;;;;;8.86;46.21;100114.81;5010374;28;20244;-75
2021/04/28 06:40:17;;;;;;;5.90;3.20;;;;;;;9.02;45.72;100109.09;4993045;28;20192;-75
2021/04/28 06:42:43;;;;;;;5.43;2.93;;;;;;;9.11;45.73;100110.13;4988970;28;20252;-75
2021/04/28 06:45:09;;;;;;;5.00;3.20;;;;;;;9.11;45.31;100112.03;4973636;28;20244;-75
2021/04/28 06:47:35;;;;;;;4.20;3.40;;;;;;;9.04;45.05;100112.31;4973597;28;20217;-75
2021/04/28 06:50:04;;;;;;;4.20;3.10;;;;;;;8.91;45.45;100114.81;4989925;28;20191;-74
2021/04/28 06:52:30;;;;;;;4.93;3.17;;;;;;;9.09;45.58;100116.94;4988369;28;20233;-74
2021/04/28 06:54:58;;;;;;;4.50;3.20;;;;;;;9.16;45.26;100109.28;4990249;28;20755;-75
2021/04/28 06:57:24;;;;;;;3.73;3.20;;;;;;;9.13;45.34;100110.66;4989623;28;20225;-74
2021/04/28 06:59:50;;;;;;;5.03;3.20;;;;;;;9.25;44.81;100101.16;4973822;28;20178;-75
2021/04/28 07:02:20;;;;;;;5.80;3.20;;;;;;;9.51;44.53;100099.16;4957069;28;20231;-75
2021/04/28 07:04:45;;;;;;;4.97;3.30;;;;;;;9.68;44.40;100087.63;4958109;28;20718;-75
2021/04/28 07:07:11;;;;;;;5.03;3.23;;;;;;;9.85;44.46;100092.69;4989379;28;20230;-75
2021/04/28 07:09:39;;;;;;;4.17;3.40;;;;;;;9.94;43.62;100097.28;4958509;28;20190;-75
2021/04/28 07:12:05;;;;;;;4.80;3.30;;;;;;;9.89;43.72;100088.31;4993076;28;20213;-75
2021/04/28 07:14:33;;;;;;;6.83;3.60;;;;;;;10.12;43.24;100088.47;4977567;28;20212;-74
2021/04/28 07:17:01;;;;;;;5.10;3.27;;;;;;;10.46;43.01;100090.88;5008299;28;21003;-74
2021/04/28 07:19:29;;;;;;;4.67;2.93;;;;;;;10.68;42.58;100088.50;4996406;28;20193;-75
2021/04/28 07:21:55;;;;;;;4.73;3.57;;;;;;;10.80;42.46;100086.22;4984935;28;20302;-75
2021/04/28 07:24:25;;;;;;;4.97;3.63;;;;;;;10.71;41.88;100077.06;5040639;28;20215;-75
2021/04/28 07:26:50;;;;;;;4.30;3.43;;;;;;;10.71;42.06;100076.25;5012166;28;20287;-75
2021/04/28 07:29:16;;;;;;;6.00;3.40;;;;;;;10.68;42.48;100077.66;5010828;28;20181;-75
2021/04/28 07:31:44;;;;;;;3.90;3.43;;;;;;;10.97;42.04;100075.69;5023540;28;20626;-75
2021/04/28 07:34:12;;;;;;;5.87;3.40;;;;;;;11.24;41.81;100071.28;5015071;28;20209;-76
2021/04/28 07:36:40;;;;;;;3.93;3.50;;;;;;;11.34;41.81;100076.63;5013956;28;20236;-75
2021/04/28 07:39:13;;;;;;;5.10;3.33;;;;;;;11.17;41.38;100066.22;5013761;28;20839;-75
2021/04/28 07:41:42;;;;;;;4.70;3.43;;;;;;;11.32;41.47;100073.38;4979143;28;20233;-75
2021/04/28 07:44:08;;;;;;;4.83;3.77;;;;;;;11.13;41.08;100070.63;4994746;28;20231;-74
2021/04/28 07:46:35;;;;;;;5.67;3.60;;;;;;;11.22;41.51;100074.28;4976135;28;20225;-75
2021/04/28 07:49:04;;;;;;;4.30;3.60;;;;;;;11.38;41.54;100073.03;4978021;28;20248;-75
2021/04/28 07:51:31;;;;;;;6.43;3.50;;;;;;;11.60;41.01;100076.03;4978176;28;20241;-76
2021/04/28 07:53:57;;;;;;;5.33;3.63;;;;;;;11.43;40.58;100074.84;4976964;28;20223;-75
2021/04/28 07:56:27;;;;;;;4.03;3.43;;;;;;;11.64;40.22;100071.59;4977326;28;20225;-76
2021/04/28 07:58:55;;;;;;;6.80;3.67;;;;;;;11.74;39.78;100071.47;4977739;28;20280;-75
2021/04/28 08:01:21;;;;;;;4.13;3.50;;;;;;;11.69;39.11;100063.38;4999816;28;20228;-76
2021/04/28 08:03:51;;;;;;;6.47;4.07;;;;;;;11.46;39.77;100061.50;4995626;28;20701;-75
2021/04/28 08:06:19;;;;;;;6.00;4.17;;;;;;;11.99;39.99;100047.41;5012445;28;20224;-74
2021/04/28 08:08:50;;;;;;;6.73;3.73;;;;;;;12.03;39.30;100042.97;5012727;28;20213;-75
2021/04/28 08:11:16;;;;;;;4.47;3.60;;;;;;;12.32;38.97;100042.50;5013114;28;20221;-75
2021/04/28 08:13:41;;;;;;;7.10;3.60;;;;;;;12.51;38.50;100037.81;5010855;28;20230;-75
2021/04/28 08:16:12;;;;;;;4.47;3.60;;;;;;;12.61;38.22;100032.16;4994836;28;20231;-75
2021/04/28 08:18:38;;;;;;;5.10;3.80;;;;;;;12.85;37.75;100043.72;5028888;28;20184;-76
2021/04/28 08:21:06;;;;;;;5.83;3.60;;;;;;;12.91;38.13;100037.88;5012245;28;20233;-75
2021/04/28 08:23:36;;;;;;;4.67;3.90;;;;;;;12.95;37.25;100041.63;5010739;28;20205;-74
2021/04/28 08:26:02;;;;;;;5.17;3.93;;;;;;;12.94;37.38;100042.72;4994570;28;20278;-74
2021/04/28 08:28:29;;;;;;;6.37;3.67;;;;;;;12.99;37.17;100039.09;4962988;28;20232;-74
2021/04/28 08:30:54;;;;;;;5.93;3.70;;;;;;;12.90;37.78;100044.44;4984493;28;20729;-75
2021/04/28 08:33:20;;;;;;;8.03;3.60;;;;;;;12.97;37.50;100028.50;5013222;28;20192;-75
2021/04/28 08:35:46;;;;;;;11.33;4.83;;;;;;;13.04;37.03;100031.63;4997069;28;20267;-74
2021/04/28 08:38:14;;;;;;;7.77;3.90;;;;;;;13.31;37.28;100034.31;4998035;28;20197;-75
2021/04/28 08:40:39;;;;;;;6.23;3.87;;;;;;;13.44;36.94;100031.56;5031229;28;20228;-75
2021/04/28 08:43:06;;;;;;;5.00;3.60;;;;;;;13.64;36.72;100022.94;4997161;28;20212;-74
2021/04/28 08:45:32;;;;;;;8.93;4.57;;;;;;;13.51;35.82;100024.56;4996717;28;20224;-74
2021/04/28 08:47:58;;;;;;;5.67;4.17;;;;;;;13.68;36.64;100024.75;4997570;28;20669;-75
2021/04/28 08:50:28;;;;;;;7.43;4.23;;;;;;;13.56;36.48;100021.75;5013097;28;20641;-74
2021/04/28 08:52:56;;;;;;;7.07;4.30;;;;;;;13.38;35.88;100018.34;5012859;28;20202;-74
2021/04/28 08:55:24;;;;;;;7.93;3.90;;;;;;;13.49;37.00;100018.63;4995794;28;20228;-74
2021/04/28 08:57:49;;;;;;;9.13;3.83;;;;;;;13.73;36.75;100021.09;5012541;28;20216;-74
2021/04/28 09:00:18;;;;;;;10.87;4.47;;;;;;;13.80;35.03;100014.09;4996641;28;20223;-75
2021/04/28 09:03:02;;;;;;;5.73;4.40;;;;;;;13.84;34.65;100018.66;5012599;28;20223;-75
2021/04/28 09:05:30;;;;;;;6.10;4.53;;;;;;;13.84;34.69;100012.34;5029200;28;20239;-74
2021/04/28 09:07:58;;;;;;;5.60;4.30;;;;;;;13.95;35.09;100002.81;5013435;28;20191;-74
2021/04/28 09:10:25;;;;;;;6.43;4.40;;;;;;;13.91;35.40;100012.75;4996109;28;20185;-75
2021/04/28 09:13:03;;;;;;;5.73;4.07;;;;;;;14.21;35.30;100003.84;5012251;28;20227;-73
2021/04/28 09:15:30;;;;;;;6.10;4.70;;;;;;;14.21;34.22;100017.50;4997979;28;20232;-75
2021/04/28 09:18:01;;;;;;;10.40;4.77;;;;;;;13.96;33.74;100015.38;5014546;28;20185;-75
2021/04/28 09:20:53;;;;;;;8.43;4.50;;;;;;;14.26;34.92;100016.25;4988110;28;20220;-75
2021/04/28 09:23:39;;;;;;;8.37;5.80;;;;;;;14.44;34.55;100006.25;5015520;28;20759;-75
2021/04/28 09:26:25;;;;;;;7.40;4.80;;;;;;;14.59;33.64;100008.56;5001955;28;20307;-76
2021/04/28 09:28:57;;;;;;;10.23;5.13;;;;;;;14.50;33.02;99994.84;5013952;28;20199;-73
2021/04/28 09:31:25;;;;;;;5.67;4.50;;;;;;;14.57;33.92;100008.09;5011652;28;20224;-73
2021/04/28 09:33:53;;;;;;;7.75;5.07;;;;;;;14.25;33.61;100003.72;4993555;28;20300;-73
2021/04/28 09:36:33;;;;;;;6.60;5.20;;;;;;;14.54;34.27;100001.31;4961606;28;20224;-74
2021/04/28 09:39:08;;;;;;;7.90;4.90;;;;;;;14.51;34.02;99993.75;4992378;28;20243;-74
2021/04/28 09:41:38;;;;;;;6.07;4.80;;;;;;;14.84;33.79;99995.03;4991610;28;20228;-74
2021/04/28 09:44:19;;;;;;;6.35;4.88;;;;;;;15.05;33.18;99986.75;4993247;28;20358;-74
2021/04/28 09:46:59;;;;;;;7.43;5.32;;;;;;;15.12;33.18;99991.72;5010264;28;20772;-74
2021/04/28 09:49:26;;;;;;;6.05;5.00;;;;;;;15.15;32.40;99996.59;5010076;28;20275;-75
2021/04/28 09:51:56;;;;;;;7.25;5.10;;;;;;;14.85;34.18;99983.78;4975414;28;20220;-75
2021/04/28 09:54:28;;;;;;;6.78;4.97;;;;;;;15.02;33.32;99992.84;4976992;28;20596;-73
2021/04/28 09:56:53;;;;;;;6.93;5.38;;;;;;;15.35;33.79;99985.88;5008865;28;20236;-75
2021/04/28 09:59:19;;;;;;;8.50;5.10;;;;;;;15.68;33.82;99973.34;5025953;28;20180;-75
2021/04/28 10:01:44;;;;;;;6.03;5.45;;;;;;;15.84;32.61;99962.38;5007810;28;20236;-76
2021/04/28 10:04:10;;;;;;;7.90;5.88;;;;;;;15.99;31.71;99967.38;5010593;28;20200;-75
2021/04/28 10:06:42;;;;;;;6.53;5.93;;;;;;;15.62;32.94;99958.19;4992212;28;20615;-74
2021/04/28 10:09:30;;;;;;;10.05;6.95;;;;;;;15.67;32.70;99966.25;4993982;28;20268;-75
2021/04/28 10:11:59;;;;;;;10.82;8.05;;;;;;;15.97;32.86;99957.84;5013444;28;20250;-74
2021/04/28 10:14:27;;;;;;;11.48;8.80;;;;;;;16.04;32.37;99956.22;5014594;28;20216;-74
2021/04/28 10:16:54;;;;;;;11.50;8.85;;;;;;;16.47;33.04;99959.72;4979748;28;20227;-74
2021/04/28 10:19:25;;;;;;;7.05;5.50;;;;;;;16.66;32.65;99958.97;4965436;28;20219;-74
2021/04/28 10:21:51;;;;;;;6.63;5.65;;;;;;;16.74;31.75;99952.69;4995816;28;20255;-74
2021/04/28 10:24:20;;;;;;;7.40;6.00;;;;;;;16.72;31.22;99946.72;5013979;28;20201;-74
2021/04/28 10:26:51;;;;;;;8.80;6.25;;;;;;;16.90;31.51;99948.22;4995909;28;20304;-74
2021/04/28 10:29:22;;;;;;;7.63;6.32;;;;;;;16.67;31.13;99941.41;4980365;28;20174;-74
2021/04/28 10:31:51;;;;;;;7.35;6.43;;;;;;;16.91;31.72;99947.09;4979150;28;20224;-74
2021/04/28 10:34:33;;;;;;;8.30;6.57;;;;;;;17.02;32.05;99945.59;4996717;28;20205;-74
2021/04/28 10:37:01;;;;;;;8.57;5.82;;;;;;;17.26;31.11;99943.06;4963700;28;20232;-74
2021/04/28 10:39:29;;;;;;;7.20;5.80;;;;;;;17.26;31.27;99940.31;4981548;28;20181;-74
2021/04/28 10:41:57;;;;;;;8.10;5.88;;;;;;;17.23;31.35;99930.78;4978849;28;20306;-74
2021/04/28 10:44:41;;;;;;;6.30;5.60;;;;;;;16.89;30.38;99927.44;4964066;28;20279;-75
2021/04/28 10:47:29;;;;;;;7.70;6.05;;;;;;;17.24;30.62;99931.63;4997250;28;20250;-73
2021/04/28 10:50:02;;;;;;;6.70;5.68;;;;;;;16.95;31.52;99926.88;5006915;28;20566;-74
2021/04/28 10:52:28;;;;;;;6.90;5.70;;;;;;;17.23;30.83;99921.75;5011898;28;20271;-74
2021/04/28 10:54:54;;;;;;;8.13;5.80;;;;;;;17.24;30.04;99907.69;4996579;28;20292;-74
2021/04/28 10:57:34;;;;;;;6.55;5.72;;;;;;;17.33;30.55;99918.63;5011934;28;20224;-75
2021/04/28 11:00:03;;;;;;;8.65;5.70;;;;;;;17.62;30.98;99916.59;4996294;28;20239;-74
2021/04/28 11:02:33;;;;;;;6.93;5.32;;;;;;;17.78;30.03;99915.66;4994242;28;20652;-74
2021/04/28 11:05:03;;;;;;;9.00;6.28;;;;;;;18.25;29.86;99910.34;5012425;28;20679;-74
2021/04/28 11:07:44;;;;;;;9.95;5.90;;;;;;;18.33;29.11;99906.72;4979583;28;20232;-74
2021/04/28 11:10:35;;;;;;;7.93;5.72;;;;;;;18.25;30.57;99904.06;5011908;28;20181;-74
2021/04/28 11:13:16;;;;;;;8.55;6.10;;;;;;;18.24;29.73;99903.25;5012111;28;20180;-74
2021/04/28 11:15:51;;;;;;;7.93;6.03;;;;;;;18.17;30.54;99897.50;5012619;28;20244;-75
2021/04/28 11:18:36;;;;;;;6.75;6.13;;;;;;;18.11;29.73;99891.75;4996295;28;20189;-75
2021/04/28 11:21:09;;;;;;;9.18;6.70;;;;;;;18.06;29.65;99889.16;5010374;28;20698;-75
2021/04/28 11:23:35;;;;;;;10.38;6.78;;;;;;;18.05;29.73;99893.09;5010679;28;20215;-76
2021/04/28 11:26:29;;;;;;;6.90;5.75;;;;;;;18.48;29.67;99884.03;4975732;28;20217;-75
2021/04/28 11:28:58;;;;;;;8.32;6.15;;;;;;;18.87;29.74;99875.09;5013244;28;20678;-74
2021/04/28 11:31:43;;;;;;;9.80;6.45;;;;;;;18.84;29.44;99884.03;4979364;28;20231;-75
2021/04/28 11:34:24;;;;;;;8.55;5.95;;;;;;;18.69;29.50;99876.47;4996272;28;20586;-74
2021/04/28 11:36:53;;;;;;;9.15;6.88;;;;;;;18.31;29.21;99870.47;4995049;28;20233;-76
2021/04/28 11:39:41;;;;;;;9.02;6.43;;;;;;;18.54;30.35;99868.91;4995334;28;20180;-75
2021/04/28 11:42:11;;;;;;;12.18;6.55;;;;;;;18.80;30.34;99874.88;4977971;28;20710;-75
2021/04/28 11:44:37;;;;;;;8.88;6.50;;;;;;;18.76;29.39;99866.50;4995155;28;20202;-74
2021/04/28 11:47:12;;;;;;;10.48;7.22;;;;;;;18.45;29.47;99865.47;4975153;28;20309;-74